Flight Track Log - Related Links

Times and Time Zones

All times are in EDT time to prevent confusion due to time zone crossing. See the ASQ5810 flight status page for this flight to view local times or setup timezone preferences in your user account.

Time Position Orientation Groundspeed Altitude Reporting Facility
EDT Latitude Longitude Course Direction KTS MPH feet Rate Location/Type
Tue 09:07:36 PM 41.9333 -87.9000 90° East 170 196 2,400  Level Chicago TRACON
Tue 09:08:36 PM 41.9333 -87.8333 90° East 236 272 4,000 1,550 Climbing Chicago TRACON
Tue 09:09:36 PM 41.9833 -87.7500 51° Northeast 273 314 5,500 1,684 Climbing Chicago TRACON
Tue 09:10:30 PM 42.0167 -87.6667 62° Northeast 294 338 7,200 1,859 Climbing Chicago TRACON
Tue 09:10:47 PM 42.0239 -87.6481 62° Northeast 291 335 7,700 1,769 Climbing Chicago Center
Tue 09:11:48 PM 42.0678 -87.5483 59° Northeast 310 357 9,500 1,805 Climbing Chicago Center
Tue 09:12:50 PM 42.1131 -87.4447 59° Northeast 323 372 11,400 1,790 Climbing Chicago Center
Tue 09:13:52 PM 42.1592 -87.3372 60° Northeast 333 383 13,200 1,452 Climbing Chicago Center
Tue 09:14:54 PM 42.2083 -87.2275 59° Northeast 342 394 14,400 1,355 Climbing Chicago Center
Tue 09:15:56 PM 42.2694 -87.0872 59° Northeast 361 415 16,000 1,452 Climbing Chicago Center
Tue 09:16:58 PM 42.2847 -86.9539 81° East 362 417 17,400 1,500 Climbing Chicago Center
Tue 09:18:00 PM 42.2897 -86.8186 87° East 362 417 19,100 1,500 Climbing Chicago Center
Tue 09:19:02 PM 42.2953 -86.6819 87° East 363 418 20,500 1,355 Climbing Chicago Center
Tue 09:20:04 PM 42.3000 -86.5406 87° East 369 425 21,900 1,317 Climbing Chicago Center
Tue 09:21:05 PM 42.3061 -86.3814 87° East 373 429 23,200 1,122 Climbing Chicago Center
Tue 09:22:07 PM 42.3100 -86.2378 88° East 382 440 24,200 968 Climbing Chicago Center
Tue 09:23:09 PM 42.3156 -86.0894 87° East 395 455 25,200 1,016 Climbing Chicago Center
Tue 09:24:11 PM 42.3133 -85.9411 91° East 397 457 26,300 1,016 Climbing Chicago Center
Tue 09:25:13 PM 42.3114 -85.7886 91° East 406 467 27,300 968 Climbing Chicago Center
Tue 09:26:15 PM 42.3100 -85.6353 91° East 410 472 28,300 1,073 Climbing Chicago Center
Tue 09:27:16 PM 42.3075 -85.4497 91° East 413 475 29,500 1,073 Climbing Chicago Center
Tue 09:28:18 PM 42.3050 -85.2950 91° East 414 476 30,500 968 Climbing Chicago Center
Tue 09:29:20 PM 42.3028 -85.1403 91° East 414 476 31,500 968 Climbing Chicago Center
Tue 09:30:22 PM 42.2997 -84.9853 91° East 416 479 32,500 968 Climbing Chicago Center
Tue 09:31:24 PM 42.2958 -84.8292 92° East 416 479 33,500 976 Climbing Chicago Center
Tue 09:32:25 PM 42.2936 -84.6758 91° East 413 475 34,500 732 Climbing Chicago Center
Tue 09:33:27 PM 42.3094 -84.4906 83° East 415 478 35,000 242 Climbing Chicago Center
Tue 09:34:29 PM 42.3250 -84.3278 83° East 431 496 35,000  Level Chicago Center
Tue 09:35:31 PM 42.3383 -84.1575 84° East 449 517 35,000  Level Chicago Center
Tue 09:36:33 PM 42.3525 -83.9825 84° East 465 535 35,000  Level Chicago Center
Tue 09:37:34 PM 42.3683 -83.8056 83° East 473 544 35,000  Level Chicago Center
Tue 09:38:36 PM 42.3869 -83.6081 83° East 467 537 35,000  Level Cleveland Center
Tue 09:39:36 PM 42.3933 -83.4481 87° East 467 537 35,000  Level Cleveland Center
Tue 09:40:36 PM 42.4100 -83.2717 83° East 467 537 35,000  Level Cleveland Center
Tue 09:41:36 PM 42.4247 -83.0753 84° East 472 543 35,000  Level Cleveland Center
Tue 09:42:36 PM 42.4367 -82.9042 85° East 467 537 35,000  Level Cleveland Center
Tue 09:43:36 PM 42.4486 -82.7275 85° East 467 537 35,000  Level Cleveland Center
Tue 09:44:36 PM 42.4622 -82.5478 84° East 467 537 35,000  Level Cleveland Center
Tue 09:45:36 PM 42.4756 -82.3681 84° East 472 543 35,000  Level Cleveland Center
Tue 09:46:36 PM 42.4867 -82.1825 85° East 483 556 35,000  Level Cleveland Center
Tue 09:47:36 PM 42.4994 -81.9997 85° East 483 556 35,000  Level Cleveland Center
Tue 09:48:36 PM 42.5142 -81.8114 84° East 489 563 35,000  Level Cleveland Center
Tue 09:49:36 PM 42.5242 -81.6453 85° East 489 563 35,000  Level Cleveland Center
Tue 09:50:36 PM 42.5361 -81.4594 85° East 502 578 35,000  Level Cleveland Center
Tue 09:51:36 PM 42.5478 -81.2794 85° East 481 554 35,000  Level Cleveland Center
Tue 09:52:36 PM 42.5569 -81.1047 86° East 474 545 35,000  Level Cleveland Center
Tue 09:53:36 PM 42.5661 -80.9272 86° East 474 545 35,000  Level Cleveland Center
Tue 09:54:36 PM 42.5789 -80.7467 84° East 474 545 35,000  Level Cleveland Center
Tue 09:55:36 PM 42.5894 -80.5464 86° East 480 552 35,000  Level Cleveland Center
Tue 09:56:36 PM 42.5975 -80.3631 87° East 475 547 35,000  Level Cleveland Center
Tue 09:57:36 PM 42.6056 -80.1828 86° East 481 554 35,000  Level Cleveland Center
Tue 09:58:36 PM 42.6172 -80.0106 85° East 474 545 35,000  Level Cleveland Center
Tue 09:59:36 PM 42.6267 -79.8581 85° East 461 531 35,000  Level Cleveland Center
Tue 10:00:36 PM 42.6297 -79.6914 89° East 450 518 35,000  Level Cleveland Center
Tue 10:01:36 PM 42.6389 -79.5306 86° East 434 499 35,000  Level Cleveland Center
Tue 10:02:36 PM 42.6456 -79.3667 87° East 434 499 35,000  Level Cleveland Center
Tue 10:03:36 PM 42.6542 -79.2056 86° East 434 499 35,000  Level Cleveland Center
Tue 10:04:36 PM 42.6625 -79.0444 86° East 429 494 35,000  Level Cleveland Center
Tue 10:05:36 PM 42.6664 -78.8806 88° East 429 494 35,000  Level Cleveland Center
Tue 10:06:36 PM 42.6722 -78.7167 87° East 424 488 35,000  Level Cleveland Center
Tue 10:07:36 PM 42.6781 -78.5556 87° East 424 488 35,000 -100 Level Cleveland Center
Tue 10:08:36 PM 42.6833 -78.3914 87° East 424 488 34,800 -650 Descending Cleveland Center
Tue 10:09:36 PM 42.6903 -78.2161 87° East 434 499 33,700 -1,150 Descending Cleveland Center
Tue 10:10:36 PM 42.6925 -78.0322 89° East 448 516 32,500 -1,200 Descending Cleveland Center
Tue 10:11:36 PM 42.6475 -77.8872 113° Southeast 444 511 31,300 -750 Descending Cleveland Center
Tue 10:12:36 PM 42.5897 -77.7347 117° Southeast 444 511 31,000 -150 Descending Cleveland Center
Tue 10:13:36 PM 42.5339 -77.5878 117° Southeast 444 511 31,000 -50 Level Cleveland Center
Tue 10:14:36 PM 42.4736 -77.4331 118° Southeast 444 511 30,900 -350 Descending Cleveland Center
Tue 10:15:36 PM 42.4067 -77.2789 120° Southeast 455 524 30,300 -550 Descending Cleveland Center
Tue 10:16:36 PM 42.3444 -77.1472 123° Southeast 447 514 29,800 -500 Descending Cleveland Center
Tue 10:17:36 PM 42.2800 -77.0158 124° Southeast 433 498 29,300 -400 Descending Cleveland Center
Tue 10:18:36 PM 42.2153 -76.8822 123° Southeast 426 490 29,000 -150 Descending Cleveland Center
Tue 10:19:36 PM 42.1506 -76.7514 124° Southeast 420 483 29,000  Level Cleveland Center
Tue 10:20:36 PM 42.1267 -76.6017 102° East 404 465 29,000 -290 Level Cleveland Center
Tue 10:22:42 PM 42.2000 -76.2800 73° East 422 486 28,100 -746 Descending Boston Center
Tue 10:23:41 PM 42.2361 -76.1308 72° East 422 486 26,700 -1,450 Descending Boston Center
Tue 10:24:42 PM 42.2700 -75.9811 73° East 417 480 25,200 -1,350 Descending Boston Center
Tue 10:25:41 PM 42.3022 -75.8172 75° East 412 474 24,000 -706 Descending Boston Center
Tue 10:26:41 PM 42.3208 -75.6750 80° East 399 459 23,800 -397 Descending Boston Center
Tue 10:27:42 PM 42.3414 -75.5442 78° East 375 432 23,200 -650 Descending Boston Center
Tue 10:28:41 PM 42.3592 -75.4214 79° East 349 402 22,500 -706 Descending Boston Center
Tue 10:29:41 PM 42.3767 -75.3069 78° East 331 381 21,800 -700 Descending Boston Center
Tue 10:30:41 PM 42.3942 -75.1953 78° East 312 359 21,100 -700 Descending Boston Center
Tue 10:31:41 PM 42.4136 -75.0753 78° East 312 359 20,400 -550 Descending Boston Center
Tue 10:32:41 PM 42.4328 -74.9606 77° East 312 359 20,000 -248 Descending Boston Center
Tue 10:33:42 PM 42.4519 -74.8517 77° East 312 359 19,900 -500 Descending Boston Center
Tue 10:34:41 PM 42.4836 -74.7319 70° East 306 352 19,000 -807 Descending Boston Center
Tue 10:35:41 PM 42.5128 -74.6286 69° East 328 377 18,300 -1,091 Descending Boston Center
Tue 10:36:42 PM 42.5461 -74.5114 69° East 322 371 16,800 -1,385 Descending Boston Center
Tue 10:37:25 PM 42.5706 -74.4333 67° East 311 358 15,900 -1,220 Descending Boston Center
Tue 10:37:41 PM 42.5750 -74.4136 73° East 310 357 15,600 -1,900 Descending Boston Center
Tue 10:38:25 PM 42.5972 -74.3242 71° East 313 360 14,000 -2,066 Descending Boston Center
Tue 10:38:42 PM 42.5958 -74.2875 93° East 304 350 13,500 -1,967 Descending Boston Center
Tue 10:39:26 PM 42.5764 -74.2108 109° East 317 365 12,000 -1,775 Descending Boston Center
Tue 10:39:53 PM 42.5456 -74.1675 134° Southeast 297 342 11,400 -1,967 Descending Boston Center
Tue 10:40:27 PM 42.5089 -74.1272 141° Southeast 304 350 10,000 -1,900 Descending Boston Center
Tue 10:40:53 PM 42.4819 -74.0983 142° Southeast 297 342 9,500 -1,500 Descending Boston Center
Tue 10:41:27 PM 42.4494 -74.0581 138° Southeast 274 315 8,500 -1,967 Descending Boston Center
Tue 10:41:54 PM 42.4458 -74.0158 97° East 276 318 7,500 -2,066 Descending Boston Center
Tue 10:42:28 PM 42.4403 -73.9650 98° East 250 288 6,400 -1,800 Descending Boston Center
Tue 10:42:54 PM 42.4367 -73.9228 97° East 240 276 5,700 -1,343 Descending Boston Center
Tue 10:43:35 PM 42.4372 -73.8636 89° East 244 281 4,900 -1,322 Descending Boston Center
Tue 10:43:53 PM 42.4461 -73.8356 67° East 231 266 4,400 -1,443 Descending Boston Center
Tue 10:44:54 PM 42.5028 -73.7919 30° Northeast 213 245 3,000 -1,107 Descending Boston Center
Tue 10:45:36 PM 42.5486 -73.7983 354° North 227 261 2,500 -500 Descending Boston Center
Tue 10:45:54 PM 42.5653 -73.7989 359° North 208 239 2,500  Level Boston Center
Tue 10:46:37 PM 42.6006 -73.8025 356° North 177 204 2,500  Level Boston Center
Tue 10:46:53 PM 42.6111 -73.8028 359° North 196 226 2,500 -600 Level Boston Center
Tue 10:47:37 PM 42.6528 -73.8036 359° North 178 205 1,900 -100 Descending Boston Center
Tue 10:47:53 PM 42.6675 -73.7983 15° North 190 219 2,400 -787 Climbing Boston Center
Tue 10:48:38 PM 42.6944 -73.8072 346° North 152 175 1,100 21,600 Descending Boston Center
Tue 10:48:53 PM 42.7194 -73.7994 13° North 190 219 24,000 -689 Climbing Boston Center
Tue 10:49:39 PM 42.7339 -73.8081 336° Northwest 128 147 400  Descending Boston Center
Tue 10:50:53 PM 42.8236 -73.8017 North 190 219 24,000 10,489 Climbing Boston Center
Tue 10:51:54 PM 42.8444 -73.8022 359° North 190 219 24,000  Level Boston Center

Login

Don't have an account? Register now (free) for customized features, flight alerts, and more!